createdAt,value
2022-10-30T00:00:29.685Z,4.55
2022-10-30T00:03:04.351Z,4.10
2022-10-30T00:05:31.704Z,4.30
2022-10-30T00:08:06.140Z,4.20
2022-10-30T00:10:34.426Z,4.28
2022-10-30T00:13:02.419Z,4.82
2022-10-30T00:15:36.150Z,3.50
2022-10-30T00:18:03.737Z,4.03
2022-10-30T00:20:43.278Z,4.18
2022-10-30T00:23:14.925Z,3.35
2022-10-30T00:25:41.751Z,3.90
2022-10-30T00:28:18.188Z,3.97
2022-10-30T00:30:44.962Z,4.35
2022-10-30T00:33:12.449Z,5.45
2022-10-30T00:38:15.172Z,5.47
2022-10-30T00:40:41.921Z,4.68
2022-10-30T00:43:40.296Z,4.40
2022-10-30T00:46:11.978Z,5.20
2022-10-30T00:48:38.970Z,4.88
2022-10-30T00:51:16.220Z,5.03
2022-10-30T00:53:48.143Z,5.97
2022-10-30T00:56:25.207Z,4.85
2022-10-30T00:59:12.910Z,4.43
2022-10-30T01:01:50.364Z,4.72
2022-10-30T01:04:38.366Z,4.60
2022-10-30T01:07:13.554Z,4.32
2022-10-30T01:09:48.332Z,4.75
2022-10-30T01:12:16.122Z,4.47
2022-10-30T01:14:47.876Z,3.95
2022-10-30T01:17:37.231Z,3.85
2022-10-30T01:20:10.029Z,4.70
2022-10-30T01:22:58.647Z,3.80
2022-10-30T01:25:44.021Z,3.85
2022-10-30T01:29:01.336Z,3.90
2022-10-30T01:31:56.980Z,4.22
2022-10-30T01:34:40.260Z,6.53
2022-10-30T01:37:20.280Z,5.20
2022-10-30T01:39:47.240Z,6.18
2022-10-30T01:42:50.306Z,6.75
2022-10-30T01:45:50.503Z,6.22
2022-10-30T01:48:39.303Z,5.68
2022-10-30T01:51:27.832Z,5.30
2022-10-30T01:54:27.348Z,5.45
2022-10-30T01:57:24.544Z,5.63
2022-10-30T01:59:56.846Z,5.80
2022-10-30T02:04:57.432Z,4.97
2022-10-30T02:07:31.340Z,6.10
2022-10-30T02:09:58.303Z,5.90
2022-10-30T02:12:33.324Z,4.90
2022-10-30T02:15:08.348Z,5.22
2022-10-30T02:17:41.322Z,4.72
2022-10-30T02:20:25.327Z,5.13
2022-10-30T02:22:59.792Z,5.88
2022-10-30T02:25:27.121Z,5.25
2022-10-30T02:27:53.874Z,6.15
2022-10-30T02:30:28.347Z,5.63
2022-10-30T02:32:55.402Z,4.60
2022-10-30T02:35:22.420Z,4.97
2022-10-30T02:37:56.649Z,5.78
2022-10-30T02:40:23.667Z,4.90
2022-10-30T02:42:54.793Z,5.18
2022-10-30T02:45:31.589Z,4.47
2022-10-30T02:48:00.948Z,5.35
2022-10-30T02:50:34.411Z,4.97
2022-10-30T02:53:07.383Z,4.07
2022-10-30T02:55:34.178Z,4.60
2022-10-30T02:58:00.991Z,5.10
2022-10-30T03:00:34.398Z,4.18
2022-10-30T03:03:07.949Z,4.55
2022-10-30T03:05:41.397Z,4.53
2022-10-30T03:08:08.279Z,4.65
2022-10-30T03:10:41.506Z,4.20
2022-10-30T03:13:11.038Z,4.22
2022-10-30T03:15:37.787Z,4.40
2022-10-30T03:18:11.413Z,4.70
2022-10-30T03:20:44.408Z,4.63
2022-10-30T03:23:17.795Z,4.55
2022-10-30T03:25:51.412Z,4.30
2022-10-30T03:28:18.170Z,4.50
2022-10-30T03:30:51.503Z,4.35
2022-10-30T03:33:18.587Z,4.03
2022-10-30T03:35:45.876Z,4.40
2022-10-30T03:38:20.491Z,3.95
2022-10-30T03:40:47.414Z,4.28
2022-10-30T03:43:14.254Z,4.63
2022-10-30T03:45:52.463Z,4.82
2022-10-30T03:48:21.145Z,3.67
2022-10-30T03:50:54.574Z,4.00
2022-10-30T03:53:30.463Z,3.85
2022-10-30T03:56:08.511Z,4.50
2022-10-30T03:58:41.447Z,3.95
2022-10-30T04:01:11.684Z,4.18
2022-10-30T04:03:47.673Z,3.70
2022-10-30T04:06:14.400Z,4.38
2022-10-30T04:08:48.564Z,4.68
2022-10-30T04:11:15.400Z,3.92
2022-10-30T04:13:48.547Z,4.45
2022-10-30T04:16:21.542Z,4.63
2022-10-30T04:18:50.040Z,4.38
2022-10-30T04:21:16.940Z,4.35
2022-10-30T04:23:51.565Z,4.47
2022-10-30T04:26:18.410Z,4.75
2022-10-30T04:28:47.370Z,4.35
2022-10-30T04:31:21.528Z,4.40
2022-10-30T04:33:53.260Z,4.97
2022-10-30T04:36:28.590Z,4.22
2022-10-30T04:38:55.364Z,4.65
2022-10-30T04:41:22.151Z,4.60
2022-10-30T04:43:56.550Z,4.75
2022-10-30T04:46:23.356Z,5.47
2022-10-30T04:48:56.583Z,4.63
2022-10-30T04:51:24.064Z,5.22
2022-10-30T04:53:51.062Z,5.18
2022-10-30T04:56:24.563Z,5.40
2022-10-30T04:58:58.621Z,5.43
2022-10-30T05:01:25.595Z,6.18
2022-10-30T05:03:58.548Z,5.63
2022-10-30T05:06:26.940Z,5.78
2022-10-30T05:09:01.604Z,5.28
2022-10-30T05:11:34.616Z,5.72
2022-10-30T05:14:01.631Z,5.93
2022-10-30T05:16:34.608Z,5.85
2022-10-30T05:19:01.582Z,5.53
2022-10-30T05:21:34.609Z,5.20
2022-10-30T05:24:01.405Z,5.82
2022-10-30T05:26:34.655Z,5.93
2022-10-30T05:29:07.637Z,5.38
2022-10-30T05:31:40.617Z,5.18
2022-10-30T05:34:07.614Z,4.97
2022-10-30T05:36:41.629Z,5.45
2022-10-30T05:39:08.371Z,5.68
2022-10-30T05:41:41.630Z,5.72
2022-10-30T05:44:08.368Z,6.00
2022-10-30T05:46:41.707Z,5.90
2022-10-30T05:49:08.595Z,6.03
2022-10-30T05:51:41.641Z,6.18
2022-10-30T05:54:08.393Z,6.68
2022-10-30T05:56:41.662Z,5.70
2022-10-30T05:59:08.633Z,6.40
2022-10-30T06:01:45.662Z,6.03
2022-10-30T06:04:12.495Z,6.65
2022-10-30T06:06:45.659Z,5.80
2022-10-30T06:09:12.405Z,5.97
2022-10-30T06:11:45.658Z,6.45
2022-10-30T06:14:12.404Z,6.18
2022-10-30T06:16:45.681Z,7.57
2022-10-30T06:19:19.194Z,6.03
2022-10-30T06:21:46.782Z,6.57
2022-10-30T06:24:21.692Z,7.05
2022-10-30T06:26:49.530Z,5.55
2022-10-30T06:29:22.729Z,6.43
2022-10-30T06:31:54.264Z,6.80
2022-10-30T06:34:29.702Z,7.25
2022-10-30T06:36:56.556Z,7.22
2022-10-30T06:39:29.725Z,7.00
2022-10-30T06:41:56.483Z,6.90
2022-10-30T06:44:29.778Z,6.57
2022-10-30T06:47:00.798Z,7.18
2022-10-30T06:49:27.538Z,6.78
2022-10-30T06:52:00.750Z,6.72
2022-10-30T06:54:33.740Z,7.30
2022-10-30T06:57:07.722Z,6.78
2022-10-30T06:59:34.656Z,6.18
2022-10-30T07:02:10.978Z,7.78
2022-10-30T07:04:37.921Z,7.32
2022-10-30T07:07:11.766Z,6.32
2022-10-30T07:09:44.810Z,6.53
2022-10-30T07:12:22.750Z,6.20
2022-10-30T07:14:49.470Z,6.72
2022-10-30T07:17:22.787Z,6.90
2022-10-30T07:20:01.774Z,6.07
2022-10-30T07:22:42.366Z,5.60
2022-10-30T07:25:09.412Z,6.50
2022-10-30T07:27:51.815Z,6.60
2022-10-30T07:33:00.098Z,6.38
2022-10-30T07:38:11.813Z,4.78
2022-10-30T07:40:44.778Z,4.43
2022-10-30T07:43:16.053Z,4.47
2022-10-30T07:45:51.799Z,4.60
2022-10-30T07:48:24.831Z,4.47
2022-10-30T07:50:57.828Z,4.00
2022-10-30T07:53:25.742Z,4.00
2022-10-30T07:55:52.664Z,3.63
2022-10-30T07:58:27.823Z,3.55
2022-10-30T08:01:00.844Z,3.95
2022-10-30T08:03:31.860Z,3.40
2022-10-30T08:06:04.896Z,3.10
2022-10-30T08:08:32.576Z,3.88
2022-10-30T08:11:05.983Z,3.65
2022-10-30T08:13:38.863Z,3.58
2022-10-30T08:16:05.851Z,4.10
2022-10-30T08:18:38.860Z,3.42
2022-10-30T08:21:05.797Z,3.50
2022-10-30T08:23:44.906Z,3.28
2022-10-30T08:26:11.912Z,3.58
2022-10-30T08:28:38.746Z,3.08
2022-10-30T08:31:12.922Z,5.85
2022-10-30T08:33:41.842Z,7.05
2022-10-30T08:36:15.889Z,5.18
2022-10-30T08:38:48.899Z,4.28
2022-10-30T08:41:21.886Z,4.15
2022-10-30T08:43:48.659Z,4.78
2022-10-30T08:46:21.905Z,3.90
2022-10-30T08:48:48.966Z,3.58
2022-10-30T08:51:21.898Z,5.10
2022-10-30T08:53:56.909Z,3.63
2022-10-30T08:56:30.906Z,4.95
2022-10-30T08:58:57.790Z,3.67
2022-10-30T09:01:32.050Z,4.00
2022-10-30T09:04:05.938Z,3.40
2022-10-30T09:06:38.950Z,4.47
2022-10-30T09:09:12.943Z,4.35
2022-10-30T09:11:47.167Z,5.30
2022-10-30T09:14:13.861Z,4.20
2022-10-30T09:16:40.671Z,4.57
2022-10-30T09:19:18.572Z,5.63
2022-10-30T09:21:59.995Z,4.00
2022-10-30T09:24:32.972Z,4.53
2022-10-30T09:26:59.826Z,4.05
2022-10-30T09:29:32.988Z,3.28
2022-10-30T09:32:07.025Z,5.85
2022-10-30T09:34:48.006Z,6.65
2022-10-30T09:37:21.979Z,4.63
2022-10-30T09:39:55.080Z,4.65
2022-10-30T09:42:41.482Z,4.13
2022-10-30T09:45:35.068Z,8.02
2022-10-30T09:48:45.994Z,6.82
2022-10-30T09:51:49.026Z,5.13
2022-10-30T09:54:24.016Z,6.13
2022-10-30T09:57:10.018Z,7.18
2022-10-30T09:59:52.834Z,5.70
2022-10-30T10:02:38.120Z,5.68
2022-10-30T10:05:21.539Z,6.78
2022-10-30T10:07:59.340Z,6.93
2022-10-30T10:10:41.105Z,7.53
2022-10-30T10:13:33.034Z,8.13
2022-10-30T10:16:20.069Z,7.70
2022-10-30T10:19:12.109Z,8.07
2022-10-30T10:21:44.953Z,7.75
2022-10-30T10:24:39.026Z,6.25
2022-10-30T10:27:34.954Z,7.43
2022-10-30T10:30:33.076Z,6.90
2022-10-30T10:33:37.257Z,8.25
2022-10-30T10:36:17.117Z,7.95
2022-10-30T10:38:52.590Z,9.38
2022-10-30T10:41:35.098Z,9.43
2022-10-30T10:44:19.609Z,8.00
2022-10-30T10:47:08.118Z,7.28
2022-10-30T10:50:13.792Z,7.00
2022-10-30T10:52:53.142Z,7.72
2022-10-30T10:55:23.713Z,6.45
2022-10-30T10:57:59.136Z,8.00
2022-10-30T11:00:29.049Z,7.25
2022-10-30T11:03:20.123Z,6.82
2022-10-30T11:06:28.144Z,8.10
2022-10-30T11:09:28.132Z,8.18
2022-10-30T11:11:59.531Z,5.57
2022-10-30T11:14:36.146Z,5.38
2022-10-30T11:17:13.654Z,5.40
2022-10-30T11:19:58.149Z,6.07
2022-10-30T11:22:40.139Z,6.30
2022-10-30T11:25:31.386Z,6.57
2022-10-30T11:28:05.332Z,7.03
2022-10-30T11:30:39.154Z,8.68
2022-10-30T11:33:28.600Z,12.20
2022-10-30T11:36:02.171Z,9.48
2022-10-30T11:38:35.169Z,7.65
2022-10-30T11:41:02.748Z,6.80
2022-10-30T11:43:36.201Z,6.07
2022-10-30T11:46:13.177Z,5.72
2022-10-30T11:48:51.196Z,5.30
2022-10-30T11:51:34.667Z,5.78
2022-10-30T11:54:09.243Z,5.03
2022-10-30T11:56:43.207Z,4.85
2022-10-30T11:59:20.543Z,4.28
2022-10-30T12:02:25.329Z,4.50
2022-10-30T12:04:59.212Z,4.90
2022-10-30T12:07:35.099Z,4.05
2022-10-30T12:10:09.253Z,4.47
2022-10-30T12:12:38.365Z,3.42
2022-10-30T12:15:20.267Z,3.10
2022-10-30T12:17:55.986Z,3.25
2022-10-30T12:20:29.247Z,3.20
2022-10-30T12:22:56.504Z,3.50
2022-10-30T12:25:38.245Z,4.30
2022-10-30T12:28:24.416Z,4.45
2022-10-30T12:31:20.267Z,4.38
2022-10-30T12:34:16.969Z,3.60
2022-10-30T12:39:42.907Z,3.10
2022-10-30T12:42:22.410Z,3.10
2022-10-30T12:44:55.639Z,2.90
2022-10-30T12:47:39.276Z,2.60
2022-10-30T12:50:18.950Z,2.67
2022-10-30T12:53:28.299Z,2.65
2022-10-30T12:56:10.783Z,2.90
2022-10-30T12:58:51.315Z,2.70
2022-10-30T13:01:41.415Z,2.58
2022-10-30T13:04:25.767Z,2.63
2022-10-30T13:07:10.346Z,2.43
2022-10-30T13:09:42.944Z,2.28
2022-10-30T13:12:27.374Z,3.33
2022-10-30T13:15:01.719Z,3.00
2022-10-30T13:17:37.369Z,3.15
2022-10-30T13:20:19.333Z,3.22
2022-10-30T13:22:55.353Z,3.42
2022-10-30T13:25:47.647Z,4.57
2022-10-30T13:28:27.358Z,3.45
2022-10-30T13:31:13.101Z,3.08
2022-10-30T13:33:57.338Z,3.05
2022-10-30T13:37:12.358Z,3.55
2022-10-30T13:40:00.521Z,2.92
2022-10-30T13:42:37.421Z,3.05
2022-10-30T13:45:23.655Z,3.78
2022-10-30T13:48:29.435Z,3.10
2022-10-30T13:51:18.784Z,3.67
2022-10-30T13:53:55.487Z,3.35
2022-10-30T13:56:23.051Z,4.78
2022-10-30T13:59:25.456Z,3.50
2022-10-30T14:02:42.747Z,3.78
2022-10-30T14:05:15.560Z,3.47
2022-10-30T14:08:05.981Z,3.63
2022-10-30T14:10:54.680Z,3.30
2022-10-30T14:13:36.483Z,3.72
2022-10-30T14:16:07.776Z,3.55
2022-10-30T14:18:57.456Z,4.07
2022-10-30T14:21:54.338Z,3.60
2022-10-30T14:24:35.496Z,3.80
2022-10-30T14:27:05.349Z,4.32
2022-10-30T14:29:48.457Z,4.13
2022-10-30T14:32:15.675Z,5.40
2022-10-30T14:34:58.466Z,5.15
2022-10-30T14:37:27.019Z,7.40
2022-10-30T14:40:01.496Z,9.75
2022-10-30T14:43:00.787Z,8.68
2022-10-30T14:45:43.625Z,8.65
2022-10-30T14:48:46.545Z,8.02
2022-10-30T14:51:21.139Z,9.40
2022-10-30T14:54:22.525Z,10.18
2022-10-30T14:56:51.815Z,8.57
2022-10-30T14:59:21.438Z,7.40
2022-10-30T15:02:03.629Z,8.68
2022-10-30T15:07:40.510Z,8.18
2022-10-30T15:10:25.505Z,8.80
2022-10-30T15:13:27.512Z,11.43
2022-10-30T15:16:06.544Z,9.50
2022-10-30T15:18:39.531Z,9.07
2022-10-30T15:21:07.909Z,9.88
2022-10-30T15:23:37.060Z,8.70
2022-10-30T15:26:13.571Z,8.23
2022-10-30T15:28:40.622Z,11.63
2022-10-30T15:31:34.541Z,11.93
2022-10-30T15:34:01.369Z,11.43
2022-10-30T15:36:41.582Z,10.57
2022-10-30T15:39:11.470Z,10.40
2022-10-30T15:41:48.572Z,9.20
2022-10-30T15:44:34.567Z,8.13
2022-10-30T15:47:03.958Z,8.27
2022-10-30T15:49:43.555Z,8.07
2022-10-30T15:52:28.587Z,7.10
2022-10-30T15:55:03.061Z,7.07
2022-10-30T15:58:12.990Z,5.63
2022-10-30T16:00:42.567Z,5.38
2022-10-30T16:03:31.033Z,4.65
2022-10-30T16:06:12.613Z,4.63
2022-10-30T16:08:45.662Z,4.57
2022-10-30T16:11:19.641Z,4.60
2022-10-30T16:13:46.615Z,4.05
2022-10-30T16:16:32.595Z,5.13
2022-10-30T16:19:02.773Z,5.00
2022-10-30T16:21:37.625Z,4.93
2022-10-30T16:24:05.362Z,5.50
2022-10-30T16:26:41.629Z,5.30
2022-10-30T16:29:20.641Z,4.95
2022-10-30T16:31:56.644Z,4.45
2022-10-30T16:34:29.633Z,3.83
2022-10-30T16:37:01.199Z,13.93
2022-10-30T16:39:28.947Z,18.45
2022-10-30T16:42:04.659Z,18.38
2022-10-30T16:44:33.781Z,20.30
2022-10-30T16:47:34.663Z,17.58
2022-10-30T16:50:06.556Z,15.48
2022-10-30T16:52:44.657Z,12.93
2022-10-30T16:55:29.662Z,11.55
2022-10-30T16:57:59.299Z,10.93
2022-10-30T17:00:36.551Z,9.02
2022-10-30T17:03:11.594Z,7.68
2022-10-30T17:05:53.713Z,9.32
2022-10-30T17:08:41.754Z,8.48
2022-10-30T17:11:24.685Z,8.20
2022-10-30T17:13:54.816Z,7.60
2022-10-30T17:16:46.701Z,6.53
2022-10-30T17:19:31.704Z,7.32
2022-10-30T17:22:13.718Z,7.60
2022-10-30T17:24:40.845Z,7.75
2022-10-30T17:27:46.246Z,8.25
2022-10-30T17:30:34.852Z,9.52
2022-10-30T17:33:10.710Z,6.35
2022-10-30T17:35:48.801Z,6.07
2022-10-30T17:38:16.122Z,5.07
2022-10-30T17:40:49.732Z,5.03
2022-10-30T17:43:16.758Z,4.78
2022-10-30T17:45:50.824Z,4.80
2022-10-30T17:48:24.725Z,4.45
2022-10-30T17:50:57.754Z,4.22
2022-10-30T17:53:37.737Z,3.15
2022-10-30T17:56:12.939Z,4.05
2022-10-30T17:58:46.780Z,3.97
2022-10-30T18:01:18.959Z,3.95
2022-10-30T18:03:55.788Z,3.65
2022-10-30T18:06:25.686Z,3.30
2022-10-30T18:09:02.786Z,3.40
2022-10-30T18:11:29.756Z,3.00
2022-10-30T18:14:10.828Z,5.13
2022-10-30T18:16:37.935Z,6.30
2022-10-30T18:19:04.750Z,6.90
2022-10-30T18:21:37.843Z,7.13
2022-10-30T18:24:17.854Z,7.55
2022-10-30T18:26:45.496Z,6.85
2022-10-30T18:29:12.329Z,8.57
2022-10-30T18:31:46.948Z,6.95
2022-10-30T18:34:16.755Z,6.78
2022-10-30T18:36:43.778Z,6.75
2022-10-30T18:39:19.869Z,6.20
2022-10-30T18:41:53.897Z,6.60
2022-10-30T18:44:29.865Z,6.30
2022-10-30T18:47:03.871Z,7.70
2022-10-30T18:49:33.268Z,6.82
2022-10-30T18:52:06.848Z,6.68
2022-10-30T18:54:33.615Z,7.10
2022-10-30T18:57:09.867Z,8.23
2022-10-30T18:59:42.875Z,7.63
2022-10-30T19:02:21.623Z,6.68
2022-10-30T19:04:54.876Z,6.90
2022-10-30T19:07:27.792Z,7.15
2022-10-30T19:10:01.860Z,6.35
2022-10-30T19:12:28.712Z,6.10
2022-10-30T19:15:01.945Z,5.40
2022-10-30T19:17:30.279Z,5.93
2022-10-30T19:20:03.924Z,6.88
2022-10-30T19:22:30.892Z,7.70
2022-10-30T19:24:57.610Z,9.20
2022-10-30T19:27:34.937Z,6.95
2022-10-30T19:30:07.893Z,7.53
2022-10-30T19:32:34.948Z,7.07
2022-10-30T19:35:15.933Z,6.72
2022-10-30T19:37:49.013Z,6.25
2022-10-30T19:40:36.927Z,5.50
2022-10-30T19:43:04.759Z,6.80
2022-10-30T19:45:39.964Z,6.28
2022-10-30T19:48:40.565Z,6.53
2022-10-30T19:51:15.003Z,5.30
2022-10-30T19:53:51.953Z,5.78
2022-10-30T19:56:23.158Z,9.50
2022-10-30T19:58:57.001Z,10.40
2022-10-30T20:01:23.931Z,10.75
2022-10-30T20:03:57.979Z,9.98
2022-10-30T20:06:24.848Z,8.88
2022-10-30T20:09:04.027Z,7.80
2022-10-30T20:11:31.862Z,6.47
2022-10-30T20:14:05.048Z,6.60
2022-10-30T20:16:38.007Z,6.10
2022-10-30T20:19:37.046Z,5.80
2022-10-30T20:22:10.997Z,5.60
2022-10-30T20:24:44.023Z,4.30
2022-10-30T20:27:11.406Z,4.55
2022-10-30T20:29:49.041Z,3.85
2022-10-30T20:32:21.456Z,3.90
2022-10-30T20:34:48.219Z,3.58
2022-10-30T20:37:29.428Z,3.70
2022-10-30T20:40:02.989Z,3.15
2022-10-30T20:42:35.948Z,2.92
2022-10-30T20:45:11.052Z,2.83
2022-10-30T20:47:37.822Z,2.33
2022-10-30T20:50:04.892Z,2.30
2022-10-30T20:52:38.034Z,2.30
2022-10-30T20:55:05.467Z,2.53
2022-10-30T20:57:39.081Z,3.28
2022-10-30T21:00:08.506Z,2.42
2022-10-30T21:02:47.074Z,2.55
2022-10-30T21:05:37.946Z,2.78
2022-10-30T21:08:17.051Z,2.97
2022-10-30T21:10:50.061Z,3.10
2022-10-30T21:13:16.872Z,2.50
2022-10-30T21:15:51.069Z,2.53
2022-10-30T21:18:17.972Z,1.95
2022-10-30T21:20:51.096Z,2.10
2022-10-30T21:23:19.381Z,2.00
2022-10-30T21:25:53.079Z,2.08
2022-10-30T21:28:23.436Z,1.80
2022-10-30T21:30:57.104Z,1.75
2022-10-30T21:33:31.198Z,1.83
2022-10-30T21:36:05.409Z,1.98
2022-10-30T21:38:49.177Z,1.80
2022-10-30T21:41:18.869Z,2.10
2022-10-30T21:44:07.163Z,1.67
2022-10-30T21:46:47.155Z,1.80
2022-10-30T21:49:23.214Z,1.90
2022-10-30T21:51:50.605Z,1.60
2022-10-30T21:54:18.817Z,2.10
2022-10-30T21:56:52.142Z,2.00
2022-10-30T21:59:18.915Z,2.30
2022-10-30T22:01:53.156Z,2.10
2022-10-30T22:04:20.024Z,2.25
2022-10-30T22:06:53.161Z,2.10
2022-10-30T22:09:20.182Z,2.10
2022-10-30T22:11:54.130Z,2.80
2022-10-30T22:14:27.139Z,2.75
2022-10-30T22:17:00.171Z,2.50
2022-10-30T22:19:27.178Z,2.53
2022-10-30T22:22:00.173Z,2.80
2022-10-30T22:24:33.165Z,2.65
2022-10-30T22:26:59.939Z,2.47
2022-10-30T22:29:33.214Z,2.95
2022-10-30T22:32:07.788Z,3.00
2022-10-30T22:34:41.203Z,2.60
2022-10-30T22:37:08.865Z,3.08
2022-10-30T22:39:42.178Z,3.53
2022-10-30T22:42:22.203Z,3.30
2022-10-30T22:44:49.024Z,3.20
2022-10-30T22:47:22.264Z,3.47
2022-10-30T22:49:49.015Z,2.92
2022-10-30T22:52:30.325Z,3.08
2022-10-30T22:55:03.243Z,2.80
2022-10-30T22:57:37.216Z,2.78
2022-10-30T23:00:16.682Z,3.20
2022-10-30T23:02:46.277Z,3.38
2022-10-30T23:05:25.217Z,2.97
2022-10-30T23:07:52.535Z,2.95
2022-10-30T23:10:26.484Z,3.05
2022-10-30T23:12:58.949Z,3.42
2022-10-30T23:15:32.232Z,3.08
2022-10-30T23:18:05.219Z,3.25
2022-10-30T23:20:31.939Z,3.20
2022-10-30T23:23:05.390Z,3.35
2022-10-30T23:25:34.373Z,2.90
2022-10-30T23:28:14.246Z,2.55
2022-10-30T23:30:44.076Z,2.72
2022-10-30T23:33:24.246Z,2.78
2022-10-30T23:35:51.278Z,3.13
2022-10-30T23:38:24.261Z,3.08
2022-10-30T23:40:51.026Z,3.75
2022-10-30T23:43:24.342Z,2.72
2022-10-30T23:45:58.258Z,2.55
2022-10-30T23:48:31.275Z,3.55
2022-10-30T23:51:04.279Z,4.20
2022-10-30T23:53:31.107Z,3.13
2022-10-30T23:55:57.855Z,3.20
2022-10-30T23:58:31.354Z,3.22
